ENEV

Harstad / Narvik , Evenes Airport

Evenes, Norway
TAF ENEV 210200Z 2103/2112 VRB05KT 9999 FEW008 BKN030 TEMPO 2103/2112 3000 BR BKN009
Issued Valid From Valid To
Apr-21 @ 02:00 UTC
(2 hours ago)
Apr-21 @ 03:00 UTC
(43 minutes ago)
Apr-21 @ 12:00 UTC
(in 8 hours)
Apr-21 @ 03:00 to Apr-21 @ 12:00
TAF ENEV 210200Z 2103/2112 VRB05KT 9999 FEW008 BKN030
Wind Visibility Clouds
Variable at 5 knots 10,000+ meters
  • Few at 800' AGL
  • Broken at 3,000' AGL
Temporary Apr-21 @ 03:00 to Apr-21 @ 12:00
TEMPO 2103/2112 3000 BR BKN009
Visibility Clouds Conditions
2,993 meters
  • Broken at 900' AGL
  • Mist
TAF ENEV 210200Z 2103/2112 VRB05KT 9999 FEW008 BKN030 TEMPO 2103/2112 3000 BR BKN009
Issued Apr-21 @ 02:00 UTC
(2 hours ago)
Valid From Apr-21 @ 03:00 UTC
(43 minutes ago)
Valid To Apr-21 @ 12:00 UTC
(in 8 hours)
Apr-21 @ 03:00 - Apr-21 @ 12:00
Wind Visibility
Variable at 5 knots 10,000+ meters
Clouds
  • Few at 800' AGL
  • Broken at 3,000' AGL
Temporary Apr-21 @ 03:00 - Apr-21 @ 12:00
Clouds
  • Broken at 900' AGL
Conditions
  • Mist